Time;durP1;ratioP1;P1;durP2;ratioP2;P2;SDS_P1;SDS_P2;PMS_P1;PMS_P2;Temp;Humidity;BMP_temperature;BMP_pressure;BME280_temperature;BME280_humidity;BME280_pressure;Samples;Min_cycle;Max_cycle;Signal;HPM_P1;HPM_P2
2022/04/15 00:00:16;;;;;;;;;;;17.20;91.40;;;;;;702373;28;1093;-41
2022/04/15 00:00:57;;;;;;;;;;;17.20;91.40;;;;;;702689;28;1104;-41
2022/04/15 00:01:17;;;;;;;;;;;17.20;91.40;;;;;;705675;28;1010;-43
2022/04/15 00:01:38;;;;;;;;;;;17.20;91.40;;;;;;707255;28;1073;-42
2022/04/15 00:02:01;;;;;;;;;;;17.20;91.40;;;;;;702673;28;1097;-42
2022/04/15 00:02:24;;;;;;;;;;;17.20;91.40;;;;;;702614;28;1086;-42
2022/04/15 00:02:45;;;;;;;;;;;17.20;91.40;;;;;;702408;28;1006;-42
2022/04/15 00:03:06;;;;;;;;;;;17.20;91.40;;;;;;702434;28;1006;-42
2022/04/15 00:03:30;;;;;;;;;;;17.20;91.40;;;;;;699772;28;1053;-42
2022/04/15 00:03:51;;;;;;;;;;;17.20;91.40;;;;;;699624;28;1116;-41
2022/04/15 00:04:12;;;;;;;;;;;17.20;91.50;;;;;;699608;28;1116;-41
2022/04/15 00:04:34;;;;;;;;;;;17.20;91.50;;;;;;701037;28;1077;-42
2022/04/15 00:04:57;;;;;;;;;;;17.20;91.40;;;;;;702330;28;968;-42
2022/04/15 00:05:34;;;;;;;;;;;17.20;91.40;;;;;;702522;28;1062;-42
2022/04/15 00:05:55;;;;;;;;;;;17.20;91.50;;;;;;702749;28;1050;-41
2022/04/15 00:06:16;;;;;;;;;;;17.10;91.50;;;;;;702520;28;945;-41
2022/04/15 00:06:37;;;;;;;;;;;17.20;91.50;;;;;;702725;28;993;-41
2022/04/15 00:06:58;;;;;;;;;;;17.10;91.70;;;;;;702558;28;1022;-42
2022/04/15 00:07:19;;;;;;;;;;;17.10;91.50;;;;;;702721;28;1941;-41
2022/04/15 00:07:40;;;;;;;;;;;17.10;91.50;;;;;;702656;28;1032;-43
2022/04/15 00:08:01;;;;;;;;;;;17.10;91.50;;;;;;702747;28;1055;-42
2022/04/15 00:08:22;;;;;;;;;;;17.10;91.50;;;;;;702683;28;1138;-41
2022/04/15 00:08:43;;;;;;;;;;;17.20;91.50;;;;;;702752;28;690;-41
2022/04/15 00:09:03;;;;;;;;;;;17.10;91.50;;;;;;702532;28;1034;-41
2022/04/15 00:09:24;;;;;;;;;;;17.10;91.50;;;;;;702650;28;1066;-42
2022/04/15 00:09:45;;;;;;;;;;;17.20;91.50;;;;;;702602;28;1109;-42
2022/04/15 00:10:06;;;;;;;;;;;17.10;91.50;;;;;;702573;28;953;-41
2022/04/15 00:10:28;;;;;;;;;;;17.20;91.50;;;;;;702617;28;998;-41
2022/04/15 00:10:49;;;;;;;;;;;17.10;91.50;;;;;;702735;28;985;-41
2022/04/15 00:11:10;;;;;;;;;;;17.20;91.50;;;;;;702567;28;1068;-42
2022/04/15 00:11:31;;;;;;;;;;;17.10;91.50;;;;;;702669;28;1058;-41
2022/04/15 00:11:53;;;;;;;;;;;17.10;91.50;;;;;;702686;28;1060;-42
2022/04/15 00:12:18;;;;;;;;;;;17.20;91.50;;;;;;702760;28;1069;-42
2022/04/15 00:12:39;;;;;;;;;;;17.20;91.50;;;;;;702550;28;1867;-41
2022/04/15 00:13:00;;;;;;;;;;;17.10;91.50;;;;;;702690;28;1022;-41
2022/04/15 00:13:24;;;;;;;;;;;17.10;91.50;;;;;;702508;28;1004;-42
2022/04/15 00:13:45;;;;;;;;;;;17.10;91.50;;;;;;705321;28;1028;-41
2022/04/15 00:14:06;;;;;;;;;;;17.20;91.50;;;;;;705121;28;1002;-41
2022/04/15 00:14:27;;;;;;;;;;;17.10;91.50;;;;;;705338;28;970;-41
2022/04/15 00:14:48;;;;;;;;;;;17.10;91.50;;;;;;705261;28;977;-41
2022/04/15 00:15:09;;;;;;;;;;;17.20;91.50;;;;;;705114;28;995;-42
2022/04/15 00:15:30;;;;;;;;;;;17.10;91.50;;;;;;704591;28;957;-41
2022/04/15 00:15:51;;;;;;;;;;;17.10;91.50;;;;;;702650;28;1033;-41
2022/04/15 00:16:12;;;;;;;;;;;17.10;91.50;;;;;;702673;28;997;-41
2022/04/15 00:16:32;;;;;;;;;;;17.10;91.50;;;;;;702659;28;603;-41
2022/04/15 00:16:53;;;;;;;;;;;17.10;91.50;;;;;;702605;28;1086;-41
2022/04/15 00:17:14;;;;;;;;;;;17.10;91.50;;;;;;702682;28;986;-43
2022/04/15 00:17:35;;;;;;;;;;;17.20;91.60;;;;;;702587;28;1093;-41
2022/04/15 00:17:56;;;;;;;;;;;17.10;91.50;;;;;;702601;28;1081;-42
2022/04/15 00:18:17;;;;;;;;;;;17.20;91.60;;;;;;702602;28;1047;-42
2022/04/15 00:18:38;;;;;;;;;;;17.10;91.60;;;;;;705095;28;1410;-42
2022/04/15 00:18:59;;;;;;;;;;;17.10;91.60;;;;;;705195;28;974;-41
2022/04/15 00:19:20;;;;;;;;;;;17.10;91.60;;;;;;702141;28;1913;-41
2022/04/15 00:19:41;;;;;;;;;;;17.10;91.60;;;;;;699504;28;1030;-42
2022/04/15 00:20:04;;;;;;;;;;;17.10;91.60;;;;;;699500;28;1363;-41
2022/04/15 00:20:26;;;;;;;;;;;17.10;91.60;;;;;;699523;28;1029;-41
2022/04/15 00:20:47;;;;;;;;;;;17.10;91.60;;;;;;699695;28;978;-42
2022/04/15 00:21:08;;;;;;;;;;;17.10;91.60;;;;;;697871;28;1101;-42
2022/04/15 00:21:29;;;;;;;;;;;17.10;91.60;;;;;;700755;28;1038;-42
2022/04/15 00:21:50;;;;;;;;;;;17.10;91.60;;;;;;702394;28;1060;-41
2022/04/15 00:22:11;;;;;;;;;;;17.10;91.60;;;;;;702480;28;1065;-43
2022/04/15 00:22:31;;;;;;;;;;;17.10;91.60;;;;;;702466;28;1084;-41
2022/04/15 00:22:53;;;;;;;;;;;17.10;91.60;;;;;;702342;28;1025;-42
2022/04/15 00:23:13;;;;;;;;;;;17.10;91.60;;;;;;702602;28;1044;-41
2022/04/15 00:23:34;;;;;;;;;;;17.10;91.60;;;;;;702548;28;1029;-42
2022/04/15 00:23:56;;;;;;;;;;;17.10;91.60;;;;;;702578;28;1035;-43
2022/04/15 00:24:17;;;;;;;;;;;17.20;91.60;;;;;;702526;28;1093;-41
2022/04/15 00:24:38;;;;;;;;;;;17.10;91.90;;;;;;702514;28;983;-42
2022/04/15 00:24:59;;;;;;;;;;;17.10;91.60;;;;;;702661;28;1061;-41
2022/04/15 00:25:20;;;;;;;;;;;17.10;91.60;;;;;;702582;28;1126;-41
2022/04/15 00:25:40;;;;;;;;;;;17.10;91.60;;;;;;702553;28;1006;-42
2022/04/15 00:26:01;;;;;;;;;;;17.10;91.60;;;;;;702676;28;978;-42
2022/04/15 00:26:22;;;;;;;;;;;17.10;91.60;;;;;;702681;28;1085;-41
2022/04/15 00:26:43;;;;;;;;;;;17.10;91.60;;;;;;703098;28;1148;-41
2022/04/15 00:27:04;;;;;;;;;;;17.10;91.60;;;;;;703166;28;780;-42
2022/04/15 00:27:24;;;;;;;;;;;17.10;91.60;;;;;;703091;28;1065;-40
2022/04/15 00:27:45;;;;;;;;;;;17.10;91.60;;;;;;703111;28;695;-42
2022/04/15 00:28:06;;;;;;;;;;;17.10;91.60;;;;;;703085;28;1122;-43
2022/04/15 00:28:27;;;;;;;;;;;17.10;91.60;;;;;;703155;28;1017;-42
2022/04/15 00:28:48;;;;;;;;;;;17.10;91.60;;;;;;703145;28;788;-42
2022/04/15 00:29:08;;;;;;;;;;;17.10;91.70;;;;;;703089;28;1052;-42
2022/04/15 00:29:29;;;;;;;;;;;17.10;91.60;;;;;;703260;28;982;-41
2022/04/15 00:29:50;;;;;;;;;;;17.10;91.70;;;;;;703039;28;1049;-43
2022/04/15 00:30:11;;;;;;;;;;;17.10;91.60;;;;;;703113;28;1024;-42
2022/04/15 00:30:32;;;;;;;;;;;17.10;91.70;;;;;;703234;28;1043;-41
2022/04/15 00:30:53;;;;;;;;;;;17.10;91.70;;;;;;703057;28;1028;-41
2022/04/15 00:31:14;;;;;;;;;;;17.10;91.70;;;;;;703043;28;1065;-41
2022/04/15 00:31:34;;;;;;;;;;;17.10;91.70;;;;;;703233;28;985;-42
2022/04/15 00:31:55;;;;;;;;;;;17.10;91.70;;;;;;703163;28;997;-41
2022/04/15 00:32:16;;;;;;;;;;;17.10;91.70;;;;;;703132;28;1130;-44
2022/04/15 00:32:37;;;;;;;;;;;17.10;91.70;;;;;;703172;28;1072;-41
2022/04/15 00:32:58;;;;;;;;;;;17.10;91.70;;;;;;702876;28;1027;-42
2022/04/15 00:33:19;;;;;;;;;;;17.10;91.70;;;;;;702874;28;993;-41
2022/04/15 00:33:39;;;;;;;;;;;17.10;91.70;;;;;;702964;28;772;-41
2022/04/15 00:34:03;;;;;;;;;;;17.10;91.70;;;;;;702803;28;1095;-42
2022/04/15 00:34:24;;;;;;;;;;;17.10;91.70;;;;;;702866;28;1076;-41
2022/04/15 00:34:45;;;;;;;;;;;17.10;91.70;;;;;;702857;28;1033;-41
2022/04/15 00:35:06;;;;;;;;;;;17.10;91.70;;;;;;703173;28;792;-41
2022/04/15 00:35:26;;;;;;;;;;;17.10;91.70;;;;;;703062;28;1105;-41
2022/04/15 00:35:47;;;;;;;;;;;17.10;91.70;;;;;;703141;28;1070;-41
2022/04/15 00:36:08;;;;;;;;;;;17.10;91.70;;;;;;702795;28;1108;-41
2022/04/15 00:36:29;;;;;;;;;;;17.10;91.70;;;;;;702991;28;966;-43
2022/04/15 00:36:50;;;;;;;;;;;17.10;91.70;;;;;;700119;28;1030;-40
2022/04/15 00:37:10;;;;;;;;;;;17.10;91.90;;;;;;700008;28;1077;-41
2022/04/15 00:37:31;;;;;;;;;;;17.10;91.70;;;;;;700036;28;1124;-43
2022/04/15 00:37:52;;;;;;;;;;;17.10;91.70;;;;;;700628;28;1014;-43
2022/04/15 00:38:13;;;;;;;;;;;17.10;91.70;;;;;;702769;28;957;-47
2022/04/15 00:38:34;;;;;;;;;;;17.10;91.70;;;;;;702864;28;1054;-46
2022/04/15 00:38:55;;;;;;;;;;;17.10;91.70;;;;;;703064;28;973;-45
2022/04/15 00:39:15;;;;;;;;;;;17.10;91.70;;;;;;702982;28;1979;-49
2022/04/15 00:39:38;;;;;;;;;;;17.10;91.70;;;;;;703056;28;997;-51
2022/04/15 00:40:02;;;;;;;;;;;17.10;91.70;;;;;;702988;28;1019;-44
2022/04/15 00:40:23;;;;;;;;;;;17.10;91.80;;;;;;703105;28;1085;-44
2022/04/15 00:40:44;;;;;;;;;;;17.00;91.70;;;;;;703073;28;973;-45
2022/04/15 00:41:04;;;;;;;;;;;17.10;91.80;;;;;;703170;28;713;-44
2022/04/15 00:41:25;;;;;;;;;;;17.00;91.80;;;;;;703044;28;1030;-44
2022/04/15 00:41:46;;;;;;;;;;;17.00;91.80;;;;;;703203;28;1037;-45
2022/04/15 00:42:08;;;;;;;;;;;17.00;91.80;;;;;;703025;28;1085;-44
2022/04/15 00:42:29;;;;;;;;;;;17.00;91.80;;;;;;702980;28;1032;-44
2022/04/15 00:42:50;;;;;;;;;;;17.10;91.80;;;;;;703069;28;1123;-45
2022/04/15 00:43:11;;;;;;;;;;;17.00;91.80;;;;;;703032;28;1048;-44
2022/04/15 00:43:32;;;;;;;;;;;17.00;91.80;;;;;;703046;28;1034;-43
2022/04/15 00:43:53;;;;;;;;;;;17.00;91.80;;;;;;703071;28;1077;-43
2022/04/15 00:44:14;;;;;;;;;;;17.00;91.80;;;;;;703019;28;1150;-46
2022/04/15 00:44:35;;;;;;;;;;;17.00;91.80;;;;;;705520;28;1092;-44
2022/04/15 00:44:56;;;;;;;;;;;17.00;91.80;;;;;;705648;28;1018;-43
2022/04/15 00:45:17;;;;;;;;;;;17.00;91.80;;;;;;705719;28;1044;-44
2022/04/15 00:45:38;;;;;;;;;;;17.00;91.80;;;;;;705572;28;999;-44
2022/04/15 00:46:05;;;;;;;;;;;17.00;91.80;;;;;;705619;28;1094;-44
2022/04/15 00:46:26;;;;;;;;;;;17.00;91.80;;;;;;697115;28;1047;-43
2022/04/15 00:46:47;;;;;;;;;;;17.00;91.90;;;;;;697160;28;1065;-45
2022/04/15 00:47:08;;;;;;;;;;;17.00;91.80;;;;;;691530;28;1068;-43
2022/04/15 00:47:53;;;;;;;;;;;17.10;91.80;;;;;;691505;28;1110;-43
2022/04/15 00:48:16;;;;;;;;;;;17.10;91.80;;;;;;694661;28;1130;-43
2022/04/15 00:48:37;;;;;;;;;;;17.10;91.80;;;;;;702642;28;1051;-44
2022/04/15 00:48:58;;;;;;;;;;;17.10;91.80;;;;;;703679;27;973;-44
2022/04/15 00:49:19;;;;;;;;;;;17.10;91.80;;;;;;707883;27;1056;-45
2022/04/15 00:49:39;;;;;;;;;;;17.10;91.80;;;;;;708502;27;944;-44
2022/04/15 00:50:00;;;;;;;;;;;17.10;91.80;;;;;;708539;27;1014;-43
2022/04/15 00:50:22;;;;;;;;;;;17.10;91.80;;;;;;706977;27;1021;-45
2022/04/15 00:50:42;;;;;;;;;;;17.10;91.80;;;;;;702847;28;1026;-42
2022/04/15 00:51:03;;;;;;;;;;;17.10;91.70;;;;;;703004;28;1077;-44
2022/04/15 00:51:24;;;;;;;;;;;17.10;91.80;;;;;;702988;28;948;-44
2022/04/15 00:51:45;;;;;;;;;;;17.10;91.80;;;;;;703048;28;1077;-44
2022/04/15 00:52:06;;;;;;;;;;;17.10;91.70;;;;;;702975;28;1062;-43
2022/04/15 00:52:28;;;;;;;;;;;17.10;91.80;;;;;;702746;28;1012;-43
2022/04/15 00:52:50;;;;;;;;;;;17.10;91.80;;;;;;702639;28;1022;-43
2022/04/15 00:53:11;;;;;;;;;;;17.10;91.80;;;;;;702897;28;1164;-43
2022/04/15 00:53:32;;;;;;;;;;;17.10;91.80;;;;;;702854;28;1113;-43
2022/04/15 00:53:53;;;;;;;;;;;17.10;91.80;;;;;;702895;28;960;-43
2022/04/15 00:54:14;;;;;;;;;;;17.10;91.80;;;;;;702779;28;1078;-45
2022/04/15 00:54:34;;;;;;;;;;;17.10;91.80;;;;;;700108;28;1037;-44
2022/04/15 00:54:55;;;;;;;;;;;17.10;91.80;;;;;;702576;28;1056;-43
2022/04/15 00:55:17;;;;;;;;;;;17.10;91.80;;;;;;699822;28;1042;-45
2022/04/15 00:55:38;;;;;;;;;;;17.00;91.80;;;;;;699914;28;816;-42
2022/04/15 00:56:01;;;;;;;;;;;17.10;91.80;;;;;;697758;28;982;-44
2022/04/15 00:56:22;;;;;;;;;;;17.00;91.80;;;;;;697173;28;1094;-40
2022/04/15 00:56:44;;;;;;;;;;;17.00;91.80;;;;;;696271;28;1107;-41
2022/04/15 00:57:05;;;;;;;;;;;17.00;91.80;;;;;;695484;28;1039;-41
2022/04/15 00:57:26;;;;;;;;;;;17.00;91.80;;;;;;697328;28;1011;-40
2022/04/15 00:57:50;;;;;;;;;;;17.00;91.90;;;;;;698272;28;1048;-39
2022/04/15 00:58:11;;;;;;;;;;;17.00;91.90;;;;;;698602;28;1229;-41
2022/04/15 00:58:32;;;;;;;;;;;17.00;91.90;;;;;;702193;28;1331;-41
2022/04/15 00:58:53;;;;;;;;;;;17.00;91.90;;;;;;703950;28;1127;-43
2022/04/15 00:59:14;;;;;;;;;;;17.00;91.90;;;;;;702773;28;1905;-40
2022/04/15 00:59:34;;;;;;;;;;;17.00;91.90;;;;;;700014;28;1081;-40
2022/04/15 00:59:55;;;;;;;;;;;17.00;91.90;;;;;;700102;28;978;-40
2022/04/15 01:00:16;;;;;;;;;;;17.00;91.90;;;;;;699538;28;1031;-41
2022/04/15 01:00:37;;;;;;;;;;;17.00;91.90;;;;;;697837;28;1023;-41
2022/04/15 01:00:58;;;;;;;;;;;17.00;91.90;;;;;;700578;28;1045;-41
2022/04/15 01:01:19;;;;;;;;;;;17.00;91.90;;;;;;702608;28;1043;-40
2022/04/15 01:01:41;;;;;;;;;;;17.00;91.90;;;;;;702841;28;1115;-39
2022/04/15 01:02:03;;;;;;;;;;;17.00;91.90;;;;;;702793;28;1033;-40
2022/04/15 01:02:24;;;;;;;;;;;17.00;91.90;;;;;;702720;28;1058;-41
2022/04/15 01:02:45;;;;;;;;;;;17.00;91.90;;;;;;700020;28;1004;-40
2022/04/15 01:03:06;;;;;;;;;;;17.00;91.90;;;;;;699953;28;1022;-39
2022/04/15 01:03:26;;;;;;;;;;;17.00;92.00;;;;;;699885;28;984;-39
2022/04/15 01:03:47;;;;;;;;;;;17.00;91.90;;;;;;700672;28;979;-42
2022/04/15 01:04:09;;;;;;;;;;;17.00;91.90;;;;;;697207;28;1003;-40
2022/04/15 01:04:29;;;;;;;;;;;17.00;92.00;;;;;;694552;28;1078;-40
2022/04/15 01:04:51;;;;;;;;;;;17.00;92.00;;;;;;697298;28;1082;-40
2022/04/15 01:05:12;;;;;;;;;;;17.00;92.00;;;;;;697850;28;1026;-39
2022/04/15 01:05:33;;;;;;;;;;;17.00;92.00;;;;;;699812;28;1019;-39
2022/04/15 01:05:57;;;;;;;;;;;17.00;92.00;;;;;;698682;28;1015;-39
2022/04/15 01:06:18;;;;;;;;;;;17.00;92.00;;;;;;704141;28;990;-40
2022/04/15 01:06:39;;;;;;;;;;;17.00;92.00;;;;;;701555;28;1073;-41
2022/04/15 01:07:00;;;;;;;;;;;17.00;92.00;;;;;;697250;28;1118;-40
2022/04/15 01:07:25;;;;;;;;;;;17.00;92.00;;;;;;694272;28;1110;-42
2022/04/15 01:07:47;;;;;;;;;;;16.90;92.00;;;;;;696144;28;820;-41
2022/04/15 01:08:08;;;;;;;;;;;17.00;92.00;;;;;;697263;28;1029;-41
2022/04/15 01:08:29;;;;;;;;;;;16.90;92.00;;;;;;695669;28;1027;-40
2022/04/15 01:08:50;;;;;;;;;;;16.90;92.00;;;;;;697266;28;1022;-40
2022/04/15 01:09:11;;;;;;;;;;;17.00;92.00;;;;;;695791;28;1038;-40
2022/04/15 01:09:32;;;;;;;;;;;17.00;92.00;;;;;;694194;28;972;-41
2022/04/15 01:09:52;;;;;;;;;;;17.00;92.00;;;;;;695110;28;1019;-43
2022/04/15 01:10:13;;;;;;;;;;;17.00;92.00;;;;;;697833;28;1022;-42
2022/04/15 01:10:35;;;;;;;;;;;17.00;92.00;;;;;;700090;28;1034;-40
2022/04/15 01:10:58;;;;;;;;;;;17.00;92.00;;;;;;700594;28;985;-41
2022/04/15 01:11:18;;;;;;;;;;;17.00;92.10;;;;;;702797;28;1091;-40
2022/04/15 01:11:39;;;;;;;;;;;17.00;92.10;;;;;;702892;28;710;-42
2022/04/15 01:12:01;;;;;;;;;;;17.00;92.10;;;;;;702989;28;989;-41
2022/04/15 01:12:22;;;;;;;;;;;17.00;92.20;;;;;;702970;28;1112;-40
2022/04/15 01:12:53;;;;;;;;;;;17.00;92.10;;;;;;702859;28;1109;-42
2022/04/15 01:13:14;;;;;;;;;;;17.00;92.10;;;;;;702810;28;974;-41
2022/04/15 01:13:36;;;;;;;;;;;17.00;92.10;;;;;;699991;28;981;-41
2022/04/15 01:13:59;;;;;;;;;;;17.00;92.10;;;;;;699870;28;1071;-40
2022/04/15 01:14:20;;;;;;;;;;;17.00;92.10;;;;;;700017;28;1080;-42
2022/04/15 01:14:41;;;;;;;;;;;17.00;92.10;;;;;;702360;28;1659;-41
2022/04/15 01:15:03;;;;;;;;;;;17.00;92.10;;;;;;700051;28;948;-43
2022/04/15 01:15:24;;;;;;;;;;;17.00;92.30;;;;;;700039;28;1060;-40
2022/04/15 01:15:45;;;;;;;;;;;17.00;92.10;;;;;;699859;28;1034;-40
2022/04/15 01:16:06;;;;;;;;;;;17.00;92.10;;;;;;702744;28;982;-40
2022/04/15 01:16:27;;;;;;;;;;;17.00;92.10;;;;;;702780;28;1073;-39
2022/04/15 01:16:48;;;;;;;;;;;17.00;92.10;;;;;;703643;28;1054;-40
2022/04/15 01:17:08;;;;;;;;;;;17.00;92.30;;;;;;703442;28;776;-40
2022/04/15 01:17:29;;;;;;;;;;;17.00;92.10;;;;;;705594;28;1069;-41
2022/04/15 01:17:50;;;;;;;;;;;17.00;92.10;;;;;;704929;28;978;-40
2022/04/15 01:18:11;;;;;;;;;;;17.00;92.10;;;;;;699951;28;1143;-41
2022/04/15 01:18:31;;;;;;;;;;;17.00;92.10;;;;;;699910;28;1405;-40
2022/04/15 01:18:52;;;;;;;;;;;17.00;92.10;;;;;;700452;28;1132;-43
2022/04/15 01:19:13;;;;;;;;;;;17.00;92.10;;;;;;702744;28;1910;-41
2022/04/15 01:19:34;;;;;;;;;;;17.00;92.20;;;;;;702726;28;1072;-41
2022/04/15 01:19:55;;;;;;;;;;;17.00;92.20;;;;;;702659;28;977;-42
2022/04/15 01:20:16;;;;;;;;;;;17.00;92.20;;;;;;703040;28;981;-41
2022/04/15 01:20:37;;;;;;;;;;;17.00;92.20;;;;;;703103;28;1048;-42
2022/04/15 01:20:57;;;;;;;;;;;17.00;92.20;;;;;;702948;28;1206;-42
2022/04/15 01:21:18;;;;;;;;;;;17.00;92.20;;;;;;702989;28;1062;-41
2022/04/15 01:21:39;;;;;;;;;;;17.00;92.20;;;;;;702631;28;1001;-41
2022/04/15 01:22:01;;;;;;;;;;;17.00;92.20;;;;;;699752;28;1020;-42
2022/04/15 01:22:24;;;;;;;;;;;17.00;92.20;;;;;;699954;28;989;-39
2022/04/15 01:22:46;;;;;;;;;;;17.00;92.20;;;;;;699946;28;999;-41
2022/04/15 01:23:10;;;;;;;;;;;17.00;92.50;;;;;;699947;28;1082;-39
2022/04/15 01:23:30;;;;;;;;;;;17.00;92.20;;;;;;701471;28;1046;-41
2022/04/15 01:23:52;;;;;;;;;;;17.00;92.20;;;;;;702953;28;978;-40
2022/04/15 01:24:13;;;;;;;;;;;17.00;92.30;;;;;;702815;28;1052;-40
2022/04/15 01:24:33;;;;;;;;;;;17.00;92.30;;;;;;702920;28;1019;-44
2022/04/15 01:24:54;;;;;;;;;;;17.00;92.30;;;;;;703086;28;997;-40
2022/04/15 01:25:16;;;;;;;;;;;17.00;92.30;;;;;;702801;28;1006;-44
2022/04/15 01:25:36;;;;;;;;;;;17.00;92.30;;;;;;702895;28;999;-42
2022/04/15 01:25:57;;;;;;;;;;;17.00;92.30;;;;;;703055;28;986;-41
2022/04/15 01:26:18;;;;;;;;;;;17.00;92.30;;;;;;702768;28;1143;-41
2022/04/15 01:26:39;;;;;;;;;;;17.00;92.30;;;;;;703000;28;1088;-40
2022/04/15 01:26:59;;;;;;;;;;;17.00;92.30;;;;;;703064;28;1042;-40
2022/04/15 01:27:33;;;;;;;;;;;17.00;92.30;;;;;;702556;28;1074;-40
2022/04/15 01:27:53;;;;;;;;;;;17.00;92.30;;;;;;702710;28;1600;-42
2022/04/15 01:28:19;;;;;;;;;;;17.00;92.40;;;;;;699563;28;1779;-40
2022/04/15 01:28:40;;;;;;;;;;;17.00;92.40;;;;;;699967;28;998;-41
2022/04/15 01:29:01;;;;;;;;;;;17.10;92.40;;;;;;699917;28;1078;-42
2022/04/15 01:29:25;;;;;;;;;;;17.00;92.40;;;;;;699853;28;1108;-41
2022/04/15 01:29:45;;;;;;;;;;;17.00;92.40;;;;;;699846;28;1120;-40
2022/04/15 01:30:10;;;;;;;;;;;17.00;92.40;;;;;;701388;28;1002;-42
2022/04/15 01:30:31;;;;;;;;;;;17.00;92.40;;;;;;702516;28;1247;-41
2022/04/15 01:30:51;;;;;;;;;;;17.00;92.40;;;;;;702679;28;985;-40
2022/04/15 01:31:12;;;;;;;;;;;17.00;92.40;;;;;;702761;28;1076;-41
2022/04/15 01:31:33;;;;;;;;;;;17.10;92.50;;;;;;702700;28;1091;-41
2022/04/15 01:31:54;;;;;;;;;;;17.10;92.50;;;;;;702712;28;1204;-41
2022/04/15 01:32:14;;;;;;;;;;;17.00;92.40;;;;;;699661;28;972;-42
2022/04/15 01:32:35;;;;;;;;;;;17.00;92.40;;;;;;699830;28;1085;-41
2022/04/15 01:32:56;;;;;;;;;;;17.00;92.40;;;;;;699832;28;1106;-41
2022/04/15 01:33:17;;;;;;;;;;;17.10;92.50;;;;;;699894;28;1007;-40
2022/04/15 01:33:38;;;;;;;;;;;17.00;92.50;;;;;;699759;28;1004;-40
2022/04/15 01:33:59;;;;;;;;;;;17.00;92.50;;;;;;700355;28;643;-42
2022/04/15 01:34:20;;;;;;;;;;;17.00;92.50;;;;;;702494;28;1034;-40
2022/04/15 01:34:40;;;;;;;;;;;17.00;92.50;;;;;;702601;28;1022;-41
2022/04/15 01:35:01;;;;;;;;;;;17.00;92.50;;;;;;702618;28;1021;-41
2022/04/15 01:35:22;;;;;;;;;;;17.00;92.50;;;;;;702696;28;1054;-42
2022/04/15 01:35:43;;;;;;;;;;;17.00;92.50;;;;;;702687;28;1014;-40
2022/04/15 01:36:04;;;;;;;;;;;17.00;92.50;;;;;;702728;28;1069;-40
2022/04/15 01:36:25;;;;;;;;;;;17.00;92.50;;;;;;702364;28;983;-41
2022/04/15 01:36:45;;;;;;;;;;;17.10;92.80;;;;;;702494;28;1031;-40
2022/04/15 01:37:06;;;;;;;;;;;17.00;92.50;;;;;;699740;28;991;-41
2022/04/15 01:37:27;;;;;;;;;;;17.00;92.50;;;;;;699947;28;995;-41
2022/04/15 01:37:48;;;;;;;;;;;17.00;92.50;;;;;;699808;28;1092;-41
2022/04/15 01:38:14;;;;;;;;;;;17.10;92.60;;;;;;699903;28;1015;-40
2022/04/15 01:38:35;;;;;;;;;;;17.00;92.60;;;;;;699650;28;1022;-42
2022/04/15 01:38:56;;;;;;;;;;;17.10;92.60;;;;;;701102;28;1015;-40
2022/04/15 01:39:16;;;;;;;;;;;17.00;92.60;;;;;;702474;28;1909;-41
2022/04/15 01:39:37;;;;;;;;;;;17.10;92.80;;;;;;702679;28;765;-41
2022/04/15 01:39:58;;;;;;;;;;;17.10;92.60;;;;;;699747;28;990;-42
2022/04/15 01:40:19;;;;;;;;;;;17.10;92.60;;;;;;699794;28;987;-42
2022/04/15 01:40:39;;;;;;;;;;;17.10;92.60;;;;;;699646;28;1082;-44
2022/04/15 01:41:00;;;;;;;;;;;17.10;92.60;;;;;;699705;28;967;-40
2022/04/15 01:41:22;;;;;;;;;;;17.10;92.60;;;;;;699797;28;1030;-39
2022/04/15 01:41:43;;;;;;;;;;;17.10;92.60;;;;;;700383;28;1068;-41
2022/04/15 01:42:04;;;;;;;;;;;17.10;92.60;;;;;;702615;28;1029;-40
2022/04/15 01:42:25;;;;;;;;;;;17.00;92.60;;;;;;694293;28;1133;-41
2022/04/15 01:42:46;;;;;;;;;;;17.00;92.60;;;;;;694170;28;1174;-41
2022/04/15 01:43:07;;;;;;;;;;;17.00;92.60;;;;;;694249;28;1268;-39
2022/04/15 01:43:28;;;;;;;;;;;17.10;92.70;;;;;;694246;28;990;-41
2022/04/15 01:43:49;;;;;;;;;;;17.10;92.70;;;;;;694351;28;1023;-40
2022/04/15 01:44:15;;;;;;;;;;;17.10;92.70;;;;;;695852;28;989;-42
2022/04/15 01:44:36;;;;;;;;;;;17.00;92.70;;;;;;702667;28;961;-40
2022/04/15 01:44:57;;;;;;;;;;;17.00;92.70;;;;;;699717;28;1077;-40
2022/04/15 01:45:17;;;;;;;;;;;17.10;92.70;;;;;;699574;28;1046;-41
2022/04/15 01:45:38;;;;;;;;;;;17.00;92.70;;;;;;699771;28;1027;-39
2022/04/15 01:45:59;;;;;;;;;;;17.00;92.70;;;;;;699887;28;1050;-43
2022/04/15 01:46:20;;;;;;;;;;;17.10;92.70;;;;;;699601;28;953;-41
2022/04/15 01:46:44;;;;;;;;;;;17.10;92.70;;;;;;700197;28;1073;-41
2022/04/15 01:47:05;;;;;;;;;;;17.00;92.70;;;;;;702459;28;1086;-40
2022/04/15 01:47:26;;;;;;;;;;;17.00;92.70;;;;;;702407;28;1081;-41
2022/04/15 01:47:46;;;;;;;;;;;17.00;92.70;;;;;;702596;28;1103;-40
2022/04/15 01:48:07;;;;;;;;;;;17.00;92.80;;;;;;702574;28;1008;-40
2022/04/15 01:48:28;;;;;;;;;;;17.00;92.80;;;;;;702424;28;924;-40
2022/04/15 01:48:49;;;;;;;;;;;17.00;92.80;;;;;;702571;28;1112;-41
2022/04/15 01:49:09;;;;;;;;;;;17.00;92.80;;;;;;702438;28;1010;-40
2022/04/15 01:49:30;;;;;;;;;;;17.00;92.80;;;;;;702473;28;797;-41
2022/04/15 01:49:51;;;;;;;;;;;17.00;92.80;;;;;;702564;28;1031;-40
2022/04/15 01:50:12;;;;;;;;;;;17.00;92.80;;;;;;702579;28;1106;-40
2022/04/15 01:50:32;;;;;;;;;;;17.00;92.80;;;;;;702372;28;1059;-42
2022/04/15 01:50:53;;;;;;;;;;;17.00;92.80;;;;;;702534;28;1043;-41
2022/04/15 01:51:14;;;;;;;;;;;17.00;92.90;;;;;;702356;28;987;-40
2022/04/15 01:51:35;;;;;;;;;;;17.00;92.90;;;;;;702375;28;941;-40
2022/04/15 01:51:56;;;;;;;;;;;17.00;92.90;;;;;;702461;28;1007;-40
2022/04/15 01:52:17;;;;;;;;;;;17.00;92.90;;;;;;702589;28;1026;-41
2022/04/15 01:52:38;;;;;;;;;;;17.00;92.90;;;;;;702502;28;1080;-41
2022/04/15 01:52:58;;;;;;;;;;;17.00;92.90;;;;;;702439;28;1031;-41
2022/04/15 01:53:22;;;;;;;;;;;17.00;92.90;;;;;;702158;28;967;-41
2022/04/15 01:53:43;;;;;;;;;;;17.00;92.90;;;;;;696986;28;1063;-40
2022/04/15 01:54:04;;;;;;;;;;;17.00;92.90;;;;;;696985;28;1015;-41
2022/04/15 01:54:27;;;;;;;;;;;17.00;92.90;;;;;;696860;28;1099;-42
2022/04/15 01:54:48;;;;;;;;;;;17.00;92.90;;;;;;697088;28;1011;-40
2022/04/15 01:55:09;;;;;;;;;;;17.00;92.90;;;;;;696865;28;960;-40
2022/04/15 01:55:30;;;;;;;;;;;17.00;92.90;;;;;;698323;28;950;-41
2022/04/15 01:55:51;;;;;;;;;;;17.10;92.90;;;;;;702689;28;839;-41
2022/04/15 01:56:11;;;;;;;;;;;17.10;92.90;;;;;;702578;28;1143;-40
2022/04/15 01:56:32;;;;;;;;;;;17.10;92.90;;;;;;702464;28;730;-41
2022/04/15 01:56:53;;;;;;;;;;;17.10;92.90;;;;;;702647;28;983;-41
2022/04/15 01:57:14;;;;;;;;;;;17.00;92.80;;;;;;702522;28;1119;-41
2022/04/15 01:57:35;;;;;;;;;;;17.10;92.90;;;;;;702283;28;977;-40
2022/04/15 01:57:56;;;;;;;;;;;17.10;92.90;;;;;;702626;28;689;-43
2022/04/15 01:58:17;;;;;;;;;;;17.00;92.90;;;;;;702514;28;1254;-41
2022/04/15 01:58:38;;;;;;;;;;;17.10;92.90;;;;;;702430;28;968;-41
2022/04/15 01:58:58;;;;;;;;;;;17.00;92.90;;;;;;702636;28;1109;-40
2022/04/15 01:59:19;;;;;;;;;;;17.10;92.90;;;;;;702358;28;1906;-41
2022/04/15 01:59:40;;;;;;;;;;;17.10;92.90;;;;;;705404;28;1105;-41
2022/04/15 02:00:01;;;;;;;;;;;17.00;92.90;;;;;;705462;28;1096;-40
2022/04/15 02:00:22;;;;;;;;;;;17.10;92.90;;;;;;705425;28;986;-41
2022/04/15 02:00:43;;;;;;;;;;;17.10;92.90;;;;;;705437;28;1022;-40
2022/04/15 02:01:03;;;;;;;;;;;17.10;92.90;;;;;;705516;28;1026;-41
2022/04/15 02:01:24;;;;;;;;;;;17.00;92.90;;;;;;704673;28;1091;-41
2022/04/15 02:01:45;;;;;;;;;;;17.00;92.90;;;;;;702630;28;979;-40
2022/04/15 02:02:06;;;;;;;;;;;17.10;92.90;;;;;;702671;28;1007;-40
2022/04/15 02:02:27;;;;;;;;;;;17.10;93.00;;;;;;702697;28;1034;-40
2022/04/15 02:02:48;;;;;;;;;;;17.00;92.90;;;;;;702548;28;987;-40
2022/04/15 02:03:09;;;;;;;;;;;17.00;92.90;;;;;;702748;28;714;-41
2022/04/15 02:03:29;;;;;;;;;;;17.00;92.90;;;;;;702738;28;1057;-41
2022/04/15 02:03:50;;;;;;;;;;;17.00;92.90;;;;;;702721;28;1014;-40
2022/04/15 02:04:11;;;;;;;;;;;17.00;92.90;;;;;;702857;28;1069;-42
2022/04/15 02:04:32;;;;;;;;;;;17.00;92.90;;;;;;702712;28;1085;-42
2022/04/15 02:04:52;;;;;;;;;;;17.00;93.00;;;;;;702437;28;981;-40
2022/04/15 02:05:13;;;;;;;;;;;17.00;93.00;;;;;;702682;28;1206;-39
2022/04/15 02:05:34;;;;;;;;;;;17.00;93.00;;;;;;702624;28;1038;-39
2022/04/15 02:05:55;;;;;;;;;;;17.00;93.00;;;;;;702291;28;976;-42
2022/04/15 02:06:15;;;;;;;;;;;17.00;93.00;;;;;;702668;28;1060;-40
2022/04/15 02:06:36;;;;;;;;;;;17.00;93.00;;;;;;702887;28;1127;-40
2022/04/15 02:06:57;;;;;;;;;;;17.00;93.00;;;;;;705247;28;1103;-40
2022/04/15 02:07:18;;;;;;;;;;;17.00;93.00;;;;;;705535;28;1002;-40
2022/04/15 02:07:39;;;;;;;;;;;17.00;93.00;;;;;;705427;28;969;-40
2022/04/15 02:07:59;;;;;;;;;;;17.00;93.00;;;;;;705143;28;979;-40
2022/04/15 02:08:20;;;;;;;;;;;17.00;93.00;;;;;;705329;28;984;-40
2022/04/15 02:08:41;;;;;;;;;;;17.00;93.00;;;;;;705080;28;989;-41